createdAt,value
2018-12-01T00:01:42.491Z,93.30
2018-12-01T00:04:10.115Z,93.30
2018-12-01T00:06:37.694Z,93.20
2018-12-01T00:09:05.312Z,93.20
2018-12-01T00:11:32.891Z,93.20
2018-12-01T00:14:00.551Z,93.30
2018-12-01T00:16:28.067Z,93.20
2018-12-01T00:18:55.684Z,93.20
2018-12-01T00:21:23.267Z,93.20
2018-12-01T00:23:50.854Z,93.20
2018-12-01T00:26:18.486Z,93.20
2018-12-01T00:28:46.068Z,93.10
2018-12-01T00:31:13.644Z,93.40
2018-12-01T00:33:41.529Z,92.90
2018-12-01T00:36:09.116Z,92.80
2018-12-01T00:38:36.695Z,92.80
2018-12-01T00:41:04.322Z,92.90
2018-12-01T00:43:31.902Z,93.00
2018-12-01T00:45:59.479Z,93.00
2018-12-01T00:48:27.115Z,93.00
2018-12-01T00:50:55.465Z,93.00
2018-12-01T00:53:23.038Z,93.00
2018-12-01T00:55:50.683Z,93.00
2018-12-01T00:58:18.228Z,93.00
2018-12-01T01:00:45.814Z,93.00
2018-12-01T01:03:13.762Z,93.10
2018-12-01T01:05:41.340Z,93.10
2018-12-01T01:08:08.916Z,93.20
2018-12-01T01:10:36.539Z,93.50
2018-12-01T01:13:04.119Z,93.20
2018-12-01T01:15:32.082Z,93.30
2018-12-01T01:17:59.711Z,93.30
2018-12-01T01:20:27.298Z,93.20
2018-12-01T01:22:54.885Z,93.30
2018-12-01T01:25:22.499Z,93.20
2018-12-01T01:27:50.076Z,93.20
2018-12-01T01:30:17.728Z,93.20
2018-12-01T01:32:45.308Z,93.20
2018-12-01T01:35:12.891Z,93.20
2018-12-01T01:37:40.496Z,93.20
2018-12-01T01:40:08.077Z,93.30
2018-12-01T01:42:35.685Z,93.20
2018-12-01T01:45:03.263Z,93.20
2018-12-01T01:47:30.838Z,93.20
2018-12-01T01:49:59.226Z,92.90
2018-12-01T01:52:27.563Z,92.80
2018-12-01T01:54:55.190Z,92.80
2018-12-01T01:57:22.775Z,92.70
2018-12-01T01:59:50.354Z,92.70
2018-12-01T02:02:17.957Z,92.70
2018-12-01T02:04:45.539Z,92.80
2018-12-01T02:07:13.145Z,92.80
2018-12-01T02:09:40.715Z,92.80
2018-12-01T02:12:09.700Z,92.40
2018-12-01T02:14:37.269Z,92.40
2018-12-01T02:17:05.617Z,92.40
2018-12-01T02:19:33.217Z,92.30
2018-12-01T02:22:00.802Z,92.00
2018-12-01T02:24:28.414Z,92.00
2018-12-01T02:26:56.265Z,92.10
2018-12-01T02:29:23.895Z,92.10
2018-12-01T02:31:51.466Z,92.20
2018-12-01T02:34:19.044Z,92.30
2018-12-01T02:36:46.640Z,92.40
2018-12-01T02:39:14.234Z,92.40
2018-12-01T02:41:41.852Z,92.50
2018-12-01T02:44:20.987Z,92.50
2018-12-01T02:46:57.825Z,92.60
2018-12-01T02:49:25.403Z,92.60
2018-12-01T02:51:52.983Z,92.20
2018-12-01T02:54:20.590Z,92.20
2018-12-01T02:56:48.172Z,92.30
2018-12-01T02:59:15.786Z,92.40
2018-12-01T03:01:43.363Z,92.50
2018-12-01T03:04:10.933Z,92.50
2018-12-01T03:06:38.533Z,92.40
2018-12-01T03:09:06.116Z,92.50
2018-12-01T03:11:33.752Z,92.50
2018-12-01T03:14:01.319Z,92.60
2018-12-01T03:16:28.909Z,92.60
2018-12-01T03:18:56.507Z,92.60
2018-12-01T03:21:24.873Z,92.70
2018-12-01T03:23:53.250Z,92.80
2018-12-01T03:26:20.827Z,92.70
2018-12-01T03:28:49.181Z,92.80
2018-12-01T03:31:16.784Z,92.80
2018-12-01T03:33:44.362Z,93.00
2018-12-01T03:36:11.988Z,93.10
2018-12-01T03:38:40.337Z,93.20
2018-12-01T03:41:08.319Z,93.20
2018-12-01T03:43:35.905Z,93.20
2018-12-01T03:46:04.251Z,92.80
2018-12-01T03:48:31.878Z,92.80
2018-12-01T03:50:59.460Z,92.70
2018-12-01T03:53:27.069Z,92.80
2018-12-01T03:55:55.419Z,92.90
2018-12-01T03:58:23.005Z,92.90
2018-12-01T04:00:51.379Z,93.00
2018-12-01T04:03:19.725Z,92.70
2018-12-01T04:05:47.345Z,92.60
2018-12-01T04:08:14.934Z,92.60
2018-12-01T04:10:42.507Z,92.60
2018-12-01T04:13:10.121Z,92.60
2018-12-01T04:15:38.464Z,92.80
2018-12-01T04:18:06.075Z,92.80
2018-12-01T04:20:33.651Z,93.20
2018-12-01T04:23:01.505Z,93.00
2018-12-01T04:25:29.115Z,93.10
2018-12-01T04:27:56.702Z,93.20
2018-12-01T04:30:25.114Z,93.30
2018-12-01T04:32:52.693Z,93.60
2018-12-01T04:35:20.279Z,93.20
2018-12-01T04:37:47.883Z,93.20
2018-12-01T04:40:16.225Z,93.30
2018-12-01T04:42:43.830Z,93.20
2018-12-01T04:45:11.419Z,93.00
2018-12-01T04:47:39.011Z,93.00
2018-12-01T04:50:06.620Z,93.00
2018-12-01T04:52:34.199Z,93.00
2018-12-01T04:55:01.824Z,93.20
2018-12-01T04:57:30.177Z,92.80
2018-12-01T04:59:57.753Z,92.80
2018-12-01T05:02:26.155Z,92.90
2018-12-01T05:04:53.733Z,92.80
2018-12-01T05:07:21.347Z,92.80
2018-12-01T05:09:48.935Z,92.80
2018-12-01T05:12:17.284Z,92.80
2018-12-01T05:14:44.877Z,92.80
2018-12-01T05:17:13.228Z,93.00
2018-12-01T05:19:41.543Z,93.00
2018-12-01T05:22:09.122Z,93.10
2018-12-01T05:24:36.696Z,93.20
2018-12-01T05:27:04.298Z,93.20
2018-12-01T05:29:31.880Z,93.20
2018-12-01T05:32:00.255Z,93.20
2018-12-01T05:34:28.609Z,93.20
2018-12-01T05:36:56.263Z,93.20
2018-12-01T05:39:23.839Z,93.10
2018-12-01T05:41:51.434Z,93.20
2018-12-01T05:44:19.806Z,93.50
2018-12-01T05:46:48.151Z,92.80
2018-12-01T05:49:15.772Z,92.80
2018-12-01T05:51:43.361Z,92.70
2018-12-01T05:54:10.944Z,92.90
2018-12-01T05:56:38.562Z,93.00
2018-12-01T05:59:06.153Z,93.20
2018-12-01T06:01:33.780Z,93.30
2018-12-01T06:04:01.372Z,93.30
2018-12-01T06:06:28.963Z,93.70
2018-12-01T06:08:56.586Z,93.30
2018-12-01T06:11:24.171Z,93.30
2018-12-01T06:13:51.752Z,93.30
2018-12-01T06:16:19.455Z,93.40
2018-12-01T06:18:47.094Z,93.60
2018-12-01T06:21:15.439Z,93.50
2018-12-01T06:23:43.060Z,93.50
2018-12-01T06:26:10.637Z,93.60
2018-12-01T06:28:38.219Z,93.60
2018-12-01T06:31:05.906Z,93.50
2018-12-01T06:33:33.495Z,93.50
2018-12-01T06:36:01.079Z,93.90
2018-12-01T06:38:28.735Z,93.50
2018-12-01T06:40:56.325Z,93.50
2018-12-01T06:43:23.914Z,93.50
2018-12-01T06:45:51.531Z,93.50
2018-12-01T06:48:19.121Z,93.40
2018-12-01T06:50:46.699Z,93.50
2018-12-01T06:53:14.586Z,93.60
2018-12-01T06:55:42.933Z,93.80
2018-12-01T06:58:10.512Z,93.80
2018-12-01T07:00:38.467Z,93.80
2018-12-01T07:03:06.052Z,93.90
2018-12-01T07:05:34.813Z,94.00
2018-12-01T07:08:02.438Z,94.10
2018-12-01T07:10:30.012Z,94.30
2018-12-01T07:12:57.591Z,94.40
2018-12-01T07:15:25.190Z,94.60
2018-12-01T07:17:52.774Z,94.70
2018-12-01T07:20:20.353Z,94.80
2018-12-01T07:22:48.285Z,94.90
2018-12-01T07:25:16.625Z,95.00
2018-12-01T07:27:44.266Z,95.00
2018-12-01T07:30:11.845Z,95.10
2018-12-01T07:32:39.442Z,95.10
2018-12-01T07:35:07.823Z,95.40
2018-12-01T07:37:36.171Z,95.10
2018-12-01T07:40:03.817Z,94.90
2018-12-01T07:42:31.391Z,94.80
2018-12-01T07:44:58.969Z,94.80
2018-12-01T07:47:26.571Z,94.90
2018-12-01T07:49:54.173Z,94.90
2018-12-01T07:52:21.828Z,95.10
2018-12-01T07:54:49.414Z,94.40
2018-12-01T07:57:17.306Z,94.00
2018-12-01T07:59:45.675Z,94.10
2018-12-01T08:02:13.255Z,94.10
2018-12-01T08:04:42.120Z,94.50
2018-12-01T08:07:09.700Z,94.20
2018-12-01T08:09:38.053Z,94.30
2018-12-01T08:12:05.656Z,94.30
2018-12-01T08:14:34.002Z,94.40
2018-12-01T08:17:01.971Z,94.40
2018-12-01T08:19:29.566Z,94.30
2018-12-01T08:21:57.912Z,94.20
2018-12-01T08:24:25.512Z,94.20
2018-12-01T08:26:54.142Z,93.90
2018-12-01T08:29:21.749Z,93.90
2018-12-01T08:31:50.090Z,94.10
2018-12-01T08:34:19.125Z,93.90
2018-12-01T08:36:47.476Z,94.00
2018-12-01T08:39:15.051Z,94.00
2018-12-01T08:41:42.714Z,93.80
2018-12-01T08:44:10.288Z,93.90
2018-12-01T08:46:37.860Z,93.90
2018-12-01T08:49:06.224Z,93.70
2018-12-01T08:51:33.808Z,93.70
2018-12-01T08:54:01.739Z,93.60
2018-12-01T08:56:29.320Z,93.60
2018-12-01T08:58:56.905Z,93.60
2018-12-01T09:01:24.524Z,93.40
2018-12-01T09:03:52.105Z,93.40
2018-12-01T09:06:21.210Z,93.30
2018-12-01T09:08:49.556Z,93.40
2018-12-01T09:11:17.121Z,93.40
2018-12-01T09:13:44.748Z,93.40
2018-12-01T09:16:12.335Z,93.40
2018-12-01T09:18:39.905Z,93.50
2018-12-01T09:21:07.509Z,93.50
2018-12-01T09:23:35.082Z,93.40
2018-12-01T09:26:02.706Z,93.40
2018-12-01T09:28:31.697Z,93.60
2018-12-01T09:30:59.282Z,93.20
2018-12-01T09:33:27.663Z,93.20
2018-12-01T09:35:55.584Z,93.20
2018-12-01T09:38:24.200Z,93.30
2018-12-01T09:40:51.669Z,93.20
2018-12-01T09:43:20.015Z,93.00
2018-12-01T09:45:47.629Z,93.00
2018-12-01T09:48:15.206Z,92.80
2018-12-01T09:50:42.839Z,92.90
2018-12-01T09:53:11.182Z,92.30
2018-12-01T09:55:38.762Z,92.30
2018-12-01T09:58:06.392Z,92.00
2018-12-01T10:00:33.966Z,91.70
2018-12-01T10:03:01.548Z,91.50
2018-12-01T10:05:29.153Z,91.60
2018-12-01T10:07:56.724Z,91.50
2018-12-01T10:10:24.709Z,91.50
2018-12-01T10:12:52.285Z,91.60
2018-12-01T10:15:19.861Z,91.60
2018-12-01T10:17:47.470Z,91.60
2018-12-01T10:20:15.083Z,90.80
2018-12-01T10:22:42.947Z,90.70
2018-12-01T10:25:10.526Z,90.80
2018-12-01T10:27:38.892Z,91.10
2018-12-01T10:30:06.521Z,91.10
2018-12-01T10:32:35.239Z,90.90
2018-12-01T10:35:02.827Z,90.80
2018-12-01T10:37:31.504Z,90.20
2018-12-01T10:39:59.076Z,90.20
2018-12-01T10:42:27.429Z,90.30
2018-12-01T10:44:55.097Z,90.30
2018-12-01T10:47:22.672Z,90.20
2018-12-01T10:49:51.034Z,90.00
2018-12-01T10:52:18.655Z,90.00
2018-12-01T10:54:46.228Z,89.70
2018-12-01T10:57:13.804Z,89.80
2018-12-01T10:59:41.449Z,90.00
2018-12-01T11:02:09.024Z,90.00
2018-12-01T11:04:36.598Z,90.00
2018-12-01T11:07:04.969Z,89.90
2018-12-01T11:09:32.548Z,90.00
2018-12-01T11:12:00.207Z,90.10
2018-12-01T11:14:27.792Z,89.60
2018-12-01T11:16:56.155Z,87.90
2018-12-01T11:19:25.042Z,87.90
2018-12-01T11:21:52.630Z,87.40
2018-12-01T11:24:20.977Z,87.20
2018-12-01T11:26:48.606Z,87.20
2018-12-01T11:29:18.701Z,88.10
2018-12-01T11:31:46.277Z,88.60
2018-12-01T11:34:13.921Z,89.10
2018-12-01T11:36:42.260Z,89.60
2018-12-01T11:39:09.842Z,89.60
2018-12-01T11:41:38.842Z,89.90
2018-12-01T11:44:07.223Z,90.50
2018-12-01T11:46:34.765Z,90.20
2018-12-01T11:49:02.440Z,90.20
2018-12-01T11:51:30.023Z,90.20
2018-12-01T11:53:58.372Z,90.30
2018-12-01T11:56:27.260Z,90.30
2018-12-01T11:58:54.838Z,90.10
2018-12-01T12:01:22.458Z,90.50
2018-12-01T12:03:50.799Z,89.50
2018-12-01T12:06:19.151Z,90.00
2018-12-01T12:08:46.747Z,89.30
2018-12-01T12:11:14.323Z,89.30
2018-12-01T12:13:42.343Z,88.60
2018-12-01T12:16:09.921Z,88.10
2018-12-01T12:18:37.512Z,88.10
2018-12-01T12:21:05.961Z,88.00
2018-12-01T12:23:33.475Z,87.60
2018-12-01T12:26:01.088Z,88.20
2018-12-01T12:28:28.726Z,86.80
2018-12-01T12:30:56.317Z,87.20
2018-12-01T12:33:23.903Z,87.20
2018-12-01T12:35:51.528Z,87.40
2018-12-01T12:38:19.143Z,87.20
2018-12-01T12:40:46.716Z,87.10
2018-12-01T12:43:15.129Z,86.60
2018-12-01T12:45:42.724Z,85.80
2018-12-01T12:48:11.049Z,86.00
2018-12-01T12:50:38.648Z,86.00
2018-12-01T12:53:06.992Z,85.30
2018-12-01T12:55:35.314Z,85.20
2018-12-01T12:58:06.004Z,84.90
2018-12-01T13:00:33.605Z,85.20
2018-12-01T13:03:01.699Z,85.20
2018-12-01T13:05:29.270Z,84.80
2018-12-01T13:07:56.871Z,84.20
2018-12-01T13:10:24.980Z,84.10
2018-12-01T13:12:53.323Z,84.70
2018-12-01T13:15:20.931Z,84.60
2018-12-01T13:17:49.262Z,84.80
2018-12-01T13:20:16.843Z,85.00
2018-12-01T13:22:44.433Z,85.10
2018-12-01T13:25:12.827Z,85.90
2018-12-01T13:27:40.398Z,85.90
2018-12-01T13:30:07.981Z,86.10
2018-12-01T13:32:36.118Z,86.20
2018-12-01T13:35:03.679Z,86.30
2018-12-01T13:37:31.252Z,86.30
2018-12-01T13:39:58.888Z,86.20
2018-12-01T13:42:27.232Z,85.90
2018-12-01T13:44:54.814Z,85.70
2018-12-01T13:47:23.738Z,86.10
2018-12-01T13:49:51.316Z,85.40
2018-12-01T13:52:19.841Z,85.10
2018-12-01T13:54:47.419Z,85.10
2018-12-01T13:57:15.764Z,85.00
2018-12-01T13:59:43.426Z,84.90
2018-12-01T14:02:11.012Z,84.80
2018-12-01T14:04:38.633Z,85.10
2018-12-01T14:07:06.240Z,85.40
2018-12-01T14:09:33.822Z,86.10
2018-12-01T14:12:02.160Z,87.10
2018-12-01T14:14:30.551Z,87.00
2018-12-01T14:16:58.134Z,87.60
2018-12-01T14:19:26.523Z,89.40
2018-12-01T14:21:54.092Z,89.30
2018-12-01T14:24:21.671Z,89.00
2018-12-01T14:26:49.326Z,89.70
2018-12-01T14:29:17.940Z,89.30
2018-12-01T14:31:45.515Z,89.30
2018-12-01T14:34:13.143Z,89.70
2018-12-01T14:36:40.715Z,90.00
2018-12-01T14:39:08.297Z,90.20
2018-12-01T14:41:35.950Z,90.50
2018-12-01T14:44:03.522Z,90.60
2018-12-01T14:46:31.115Z,90.80
2018-12-01T14:48:58.807Z,90.90
2018-12-01T14:51:27.119Z,91.30
2018-12-01T14:53:54.696Z,91.20
2018-12-01T14:56:22.294Z,91.30
2018-12-01T14:58:50.654Z,91.50
2018-12-01T15:01:18.298Z,91.50
2018-12-01T15:03:45.914Z,91.60
2018-12-01T15:06:13.513Z,91.70
2018-12-01T15:08:41.614Z,91.80
2018-12-01T15:11:09.189Z,91.90
2018-12-01T15:13:36.778Z,92.00
2018-12-01T15:16:04.399Z,92.20
2018-12-01T15:18:31.987Z,91.80
2018-12-01T15:20:59.553Z,91.80
2018-12-01T15:23:27.531Z,91.70
2018-12-01T15:25:55.146Z,91.80
2018-12-01T15:28:23.094Z,91.80
2018-12-01T15:30:50.719Z,91.80
2018-12-01T15:33:18.285Z,91.90
2018-12-01T15:35:45.857Z,92.10
2018-12-01T15:38:14.342Z,92.10
2018-12-01T15:40:41.049Z,92.20
2018-12-01T15:43:09.435Z,92.40
2018-12-01T15:45:37.782Z,92.50
2018-12-01T15:48:05.350Z,92.50
2018-12-01T15:50:32.954Z,92.70
2018-12-01T15:53:00.521Z,92.40
2018-12-01T15:55:28.595Z,92.30
2018-12-01T15:57:56.221Z,92.30
2018-12-01T16:00:23.786Z,92.30
2018-12-01T16:02:52.185Z,92.30
2018-12-01T16:05:19.794Z,92.30
2018-12-01T16:07:47.333Z,92.30
2018-12-01T16:10:15.905Z,92.30
2018-12-01T16:12:43.494Z,92.30
2018-12-01T16:15:11.069Z,92.30
2018-12-01T16:17:38.673Z,92.30
2018-12-01T16:20:06.681Z,92.30
2018-12-01T16:22:34.579Z,92.30
2018-12-01T16:25:02.179Z,92.30
2018-12-01T16:27:29.797Z,92.30
2018-12-01T16:29:57.422Z,92.50
2018-12-01T16:32:24.997Z,92.20
2018-12-01T16:34:52.571Z,92.00
2018-12-01T16:37:20.220Z,92.10
2018-12-01T16:39:48.113Z,92.20
2018-12-01T16:42:15.724Z,92.20
2018-12-01T16:44:43.316Z,92.30
2018-12-01T16:47:11.048Z,92.30
2018-12-01T16:49:38.816Z,92.30
2018-12-01T16:52:06.394Z,92.30
2018-12-01T16:54:34.714Z,92.40
2018-12-01T16:57:02.300Z,92.60
2018-12-01T16:59:31.773Z,93.00
2018-12-01T17:01:58.267Z,93.00
2018-12-01T17:04:25.901Z,93.20
2018-12-01T17:06:53.519Z,93.40
2018-12-01T17:09:21.172Z,93.50
2018-12-01T17:11:48.750Z,93.60
2018-12-01T17:14:16.390Z,93.80
2018-12-01T17:16:43.994Z,94.00
2018-12-01T17:19:11.579Z,94.40
2018-12-01T17:21:39.666Z,94.10
2018-12-01T17:24:07.255Z,93.80
2018-12-01T17:26:34.842Z,93.90
2018-12-01T17:29:02.449Z,94.00
2018-12-01T17:31:30.022Z,94.10
2018-12-01T17:33:58.046Z,94.20
2018-12-01T17:36:25.622Z,94.40
2018-12-01T17:38:53.199Z,94.50
2018-12-01T17:41:21.597Z,94.70
2018-12-01T17:43:49.165Z,94.70
2018-12-01T17:46:16.737Z,94.80
2018-12-01T17:48:44.357Z,94.90
2018-12-01T17:51:11.926Z,95.00
2018-12-01T17:53:39.500Z,95.00
2018-12-01T17:56:07.483Z,95.10
2018-12-01T17:58:35.060Z,95.10
2018-12-01T18:01:02.634Z,95.20
2018-12-01T18:03:30.257Z,95.20
2018-12-01T18:05:57.839Z,95.20
2018-12-01T18:08:25.421Z,95.50
2018-12-01T18:10:53.292Z,95.00
2018-12-01T18:13:20.874Z,94.60
2018-12-01T18:15:50.134Z,94.60
2018-12-01T18:18:16.176Z,94.70
2018-12-01T18:20:43.753Z,94.70
2018-12-01T18:23:11.720Z,94.90
2018-12-01T18:25:39.299Z,94.90
2018-12-01T18:28:06.877Z,94.60
2018-12-01T18:30:34.859Z,94.50
2018-12-01T18:33:02.446Z,94.70
2018-12-01T18:35:30.017Z,94.70
2018-12-01T18:37:57.883Z,95.20
2018-12-01T18:40:25.465Z,94.90
2018-12-01T18:42:53.080Z,94.90
2018-12-01T18:45:20.657Z,95.00
2018-12-01T18:47:48.316Z,95.00
2018-12-01T18:50:15.996Z,95.10
2018-12-01T18:52:43.538Z,95.20
2018-12-01T18:55:11.163Z,95.30
2018-12-01T18:57:39.510Z,95.50
2018-12-01T19:00:07.087Z,95.50
2018-12-01T19:02:34.804Z,95.50
2018-12-01T19:05:03.114Z,95.60
2018-12-01T19:07:30.694Z,95.60
2018-12-01T19:09:58.325Z,95.70
2018-12-01T19:12:25.942Z,96.10
2018-12-01T19:14:53.485Z,95.60
2018-12-01T19:17:22.068Z,95.60
2018-12-01T19:19:49.644Z,95.70
2018-12-01T19:22:17.427Z,95.70
2018-12-01T19:24:45.788Z,95.80
2018-12-01T19:27:14.131Z,95.90
2018-12-01T19:29:41.703Z,95.90
2018-12-01T19:32:09.331Z,96.00
2018-12-01T19:34:36.908Z,96.10
2018-12-01T19:37:04.488Z,96.10
2018-12-01T19:39:32.159Z,96.20
2018-12-01T19:41:59.706Z,96.30
2018-12-01T19:44:27.317Z,96.30
2018-12-01T19:46:54.928Z,96.30
2018-12-01T19:49:22.526Z,96.40
2018-12-01T19:51:50.872Z,96.50
2018-12-01T19:54:18.504Z,96.40
2018-12-01T19:56:46.092Z,96.50
2018-12-01T19:59:13.676Z,96.80
2018-12-01T20:01:41.330Z,96.50
2018-12-01T20:04:08.874Z,96.00
2018-12-01T20:06:36.447Z,95.80
2018-12-01T20:09:04.938Z,95.80
2018-12-01T20:11:32.526Z,95.80
2018-12-01T20:14:00.112Z,96.00
2018-12-01T20:16:27.781Z,95.80
2018-12-01T20:18:55.362Z,95.80
2018-12-01T20:21:22.948Z,96.00
2018-12-01T20:23:50.567Z,96.10
2018-12-01T20:26:18.147Z,96.10
2018-12-01T20:28:45.740Z,96.50
2018-12-01T20:31:13.371Z,96.10
2018-12-01T20:33:40.949Z,96.10
2018-12-01T20:36:08.687Z,96.20
2018-12-01T20:38:36.161Z,96.20
2018-12-01T20:41:03.736Z,96.30
2018-12-01T20:43:31.325Z,96.40
2018-12-01T20:45:59.724Z,96.50
2018-12-01T20:48:27.327Z,96.50
2018-12-01T20:50:54.907Z,96.90
2018-12-01T20:53:23.498Z,96.60
2018-12-01T20:55:51.087Z,96.70
2018-12-01T20:58:19.821Z,96.80
2018-12-01T21:00:47.502Z,96.80
2018-12-01T21:03:15.073Z,96.80
2018-12-01T21:05:42.649Z,96.90
2018-12-01T21:08:10.757Z,96.90
2018-12-01T21:10:38.342Z,96.90
2018-12-01T21:13:05.925Z,96.80
2018-12-01T21:15:33.554Z,96.90
2018-12-01T21:18:01.146Z,97.00
2018-12-01T21:20:28.714Z,97.30
2018-12-01T21:22:56.802Z,96.90
2018-12-01T21:25:24.383Z,96.90
2018-12-01T21:27:51.965Z,97.00
2018-12-01T21:30:19.578Z,96.70
2018-12-01T21:32:47.235Z,96.70
2018-12-01T21:35:15.331Z,96.80
2018-12-01T21:37:42.888Z,96.80
2018-12-01T21:40:10.518Z,96.90
2018-12-01T21:42:38.099Z,97.20
2018-12-01T21:45:05.676Z,97.10
2018-12-01T21:47:34.063Z,97.30
2018-12-01T21:50:01.643Z,97.30
2018-12-01T21:52:29.219Z,97.30
2018-12-01T21:54:56.830Z,97.70
2018-12-01T21:57:24.412Z,97.70
2018-12-01T21:59:52.819Z,97.40
2018-12-01T22:02:20.396Z,97.40
2018-12-01T22:04:47.970Z,97.40
2018-12-01T22:07:15.591Z,97.50
2018-12-01T22:09:43.162Z,97.50
2018-12-01T22:12:10.757Z,97.60
2018-12-01T22:14:38.407Z,97.60
2018-12-01T22:17:05.973Z,98.00
2018-12-01T22:19:36.950Z,97.60
2018-12-01T22:22:05.291Z,97.50
2018-12-01T22:24:33.055Z,97.60
2018-12-01T22:27:00.689Z,97.60
2018-12-01T22:29:28.263Z,97.60
2018-12-01T22:31:58.722Z,97.70
2018-12-01T22:34:26.658Z,97.70
2018-12-01T22:36:54.163Z,97.70
2018-12-01T22:39:21.760Z,97.70
2018-12-01T22:41:49.379Z,97.80
2018-12-01T22:44:16.949Z,97.80
2018-12-01T22:46:44.518Z,97.90
2018-12-01T22:49:12.132Z,97.90
2018-12-01T22:51:39.712Z,97.90
2018-12-01T22:54:07.349Z,97.90
2018-12-01T22:56:34.923Z,97.90
2018-12-01T22:59:02.490Z,97.90
2018-12-01T23:01:30.115Z,97.90
2018-12-01T23:03:58.453Z,97.90
2018-12-01T23:06:26.031Z,97.90
2018-12-01T23:08:53.636Z,97.90
2018-12-01T23:11:21.208Z,97.90
2018-12-01T23:13:48.852Z,97.90
2018-12-01T23:16:16.426Z,97.90
2018-12-01T23:18:44.004Z,98.10
2018-12-01T23:21:11.598Z,97.80
2018-12-01T23:23:39.188Z,97.40
2018-12-01T23:26:06.813Z,97.30
2018-12-01T23:28:34.388Z,97.30
2018-12-01T23:31:02.974Z,97.40
2018-12-01T23:33:32.777Z,97.60
2018-12-01T23:36:00.355Z,97.20
2018-12-01T23:38:29.836Z,97.50
2018-12-01T23:40:57.420Z,97.50
2018-12-01T23:43:25.776Z,97.00
2018-12-01T23:45:53.374Z,97.20
2018-12-01T23:48:21.716Z,97.30
2018-12-01T23:50:50.754Z,97.20
2018-12-01T23:53:19.092Z,97.30
2018-12-01T23:55:46.665Z,97.30
2018-12-01T23:58:14.711Z,97.30
